Time;durP1;ratioP1;P1;durP2;ratioP2;P2;SDS_P1;SDS_P2;PMS_P1;PMS_P2;Temp;Humidity;BMP_temperature;BMP_pressure;BME280_temperature;BME280_humidity;BME280_pressure;Samples;Min_cycle;Max_cycle;Signal;HPM_P1;HPM_P2
2023/07/08 00:02:12;;;;;;;10.88;4.93;;;;;;;;;;5035932;28;20067;-74
2023/07/08 00:04:39;;;;;;;13.40;5.40;;;;;;;;;;5051750;28;20071;-74
2023/07/08 00:07:05;;;;;;;10.18;5.32;;;;;;;;;;5052349;28;20047;-74
2023/07/08 00:09:31;;;;;;;12.05;5.32;;;;;;;;;;5052173;28;20021;-73
2023/07/08 00:11:58;;;;;;;11.35;5.22;;;;;;;;;;5050957;28;20025;-73
2023/07/08 00:14:24;;;;;;;10.23;5.80;;;;;;;;;;5052404;28;20402;-73
2023/07/08 00:16:50;;;;;;;10.15;6.10;;;;;;;;;;5052115;28;20125;-73
2023/07/08 00:19:23;;;;;;;14.23;5.45;;;;;;;;;;5052025;28;20036;-73
2023/07/08 00:21:51;;;;;;;13.10;4.80;;;;;;;;;;5051170;28;20029;-72
2023/07/08 00:24:17;;;;;;;14.43;5.88;;;;;;;;;;5051705;28;20028;-73
2023/07/08 00:26:43;;;;;;;12.50;6.13;;;;;;;;;;5052259;28;20033;-73
2023/07/08 00:29:13;;;;;;;12.00;5.93;;;;;;;;;;5052385;28;20104;-73
2023/07/08 00:31:39;;;;;;;11.32;5.60;;;;;;;;;;5052687;28;20025;-72
2023/07/08 00:34:05;;;;;;;14.13;5.63;;;;;;;;;;5052234;28;20136;-73
2023/07/08 00:36:32;;;;;;;16.05;6.15;;;;;;;;;;5067061;28;20009;-72
2023/07/08 00:38:58;;;;;;;13.13;5.45;;;;;;;;;;5074817;28;20029;-73
2023/07/08 00:41:32;;;;;;;12.73;5.60;;;;;;;;;;5076318;28;20067;-72
2023/07/08 00:43:59;;;;;;;10.63;5.20;;;;;;;;;;5075075;28;20092;-74
2023/07/08 00:46:31;;;;;;;21.38;6.03;;;;;;;;;;5054899;28;20033;-73
2023/07/08 00:49:09;;;;;;;12.77;5.38;;;;;;;;;;5051366;28;20028;-74
2023/07/08 00:51:37;;;;;;;16.45;5.57;;;;;;;;;;5050820;28;20099;-74
2023/07/08 00:54:03;;;;;;;11.35;5.95;;;;;;;;;;5050584;28;20521;-73
2023/07/08 00:56:33;;;;;;;11.98;5.85;;;;;;;;;;5049793;28;20128;-74
2023/07/08 00:59:04;;;;;;;13.80;5.72;;;;;;;;;;5050743;28;20083;-74
2023/07/08 01:01:32;;;;;;;14.93;6.10;;;;;;;;;;5050802;28;20063;-74
2023/07/08 01:04:01;;;;;;;14.52;6.03;;;;;;;;;;5050142;28;20028;-74
2023/07/08 01:06:31;;;;;;;13.40;6.00;;;;;;;;;;5050991;28;20021;-72
2023/07/08 01:08:58;;;;;;;11.35;5.80;;;;;;;;;;5051606;28;20017;-73
2023/07/08 01:11:24;;;;;;;13.10;5.30;;;;;;;;;;5051518;28;20378;-73
2023/07/08 01:13:51;;;;;;;10.65;5.50;;;;;;;;;;5050557;28;20108;-73
2023/07/08 01:16:17;;;;;;;13.00;5.20;;;;;;;;;;5051606;28;20033;-73
2023/07/08 01:18:52;;;;;;;11.90;5.45;;;;;;;;;;5051262;28;20122;-73
2023/07/08 01:21:31;;;;;;;15.25;6.18;;;;;;;;;;5051127;28;20028;-74
2023/07/08 01:23:57;;;;;;;15.43;6.18;;;;;;;;;;5050163;28;20060;-75
2023/07/08 01:26:27;;;;;;;11.30;5.53;;;;;;;;;;5047325;28;20056;-73
2023/07/08 01:28:54;;;;;;;15.45;6.38;;;;;;;;;;5050605;28;20032;-73
2023/07/08 01:31:20;;;;;;;12.57;6.15;;;;;;;;;;5051195;28;20025;-74
2023/07/08 01:33:46;;;;;;;10.95;5.75;;;;;;;;;;5050152;28;20096;-73
2023/07/08 01:36:12;;;;;;;13.18;6.43;;;;;;;;;;5051064;28;20525;-73
2023/07/08 01:38:38;;;;;;;11.68;6.22;;;;;;;;;;5050951;28;20025;-74
2023/07/08 01:41:04;;;;;;;12.35;5.85;;;;;;;;;;5050245;28;20475;-73
2023/07/08 01:43:31;;;;;;;11.90;5.90;;;;;;;;;;5049194;28;20025;-72
2023/07/08 01:45:59;;;;;;;17.20;6.50;;;;;;;;;;5050285;28;20146;-73
2023/07/08 01:48:26;;;;;;;10.95;5.85;;;;;;;;;;5050748;28;20048;-74
2023/07/08 01:50:56;;;;;;;15.05;6.07;;;;;;;;;;5051291;28;20068;-74
2023/07/08 01:53:27;;;;;;;17.10;6.85;;;;;;;;;;5050191;28;20022;-73
2023/07/08 01:55:53;;;;;;;14.52;6.20;;;;;;;;;;5050029;28;20029;-72
2023/07/08 01:58:19;;;;;;;12.65;6.28;;;;;;;;;;5049935;28;20505;-73
2023/07/08 02:00:48;;;;;;;13.93;6.22;;;;;;;;;;5049842;28;20111;-72
2023/07/08 02:03:14;;;;;;;10.77;5.82;;;;;;;;;;5050471;28;20120;-73
2023/07/08 02:05:40;;;;;;;11.38;5.93;;;;;;;;;;5051532;28;20057;-72
2023/07/08 02:08:06;;;;;;;13.48;6.68;;;;;;;;;;5051184;28;20024;-72
2023/07/08 02:10:32;;;;;;;13.30;6.63;;;;;;;;;;5051487;28;20405;-73
2023/07/08 02:12:58;;;;;;;13.15;5.95;;;;;;;;;;5051140;28;20475;-72
2023/07/08 02:15:24;;;;;;;14.02;6.20;;;;;;;;;;5050068;28;20028;-72
2023/07/08 02:17:50;;;;;;;13.13;6.18;;;;;;;;;;5051416;28;20021;-74
2023/07/08 02:20:16;;;;;;;11.30;5.90;;;;;;;;;;5052962;28;20025;-75
2023/07/08 02:22:42;;;;;;;12.80;5.88;;;;;;;;;;5043089;28;20030;-73
2023/07/08 02:25:11;;;;;;;14.48;6.68;;;;;;;;;;5038262;28;20171;-74
2023/07/08 02:27:38;;;;;;;11.45;6.13;;;;;;;;;;5037863;28;20033;-74
2023/07/08 02:30:05;;;;;;;12.27;6.45;;;;;;;;;;5034895;28;20036;-74
2023/07/08 02:32:34;;;;;;;15.18;6.70;;;;;;;;;;5033127;28;20029;-74
2023/07/08 02:35:00;;;;;;;12.00;6.05;;;;;;;;;;5035238;28;20030;-74
2023/07/08 02:37:26;;;;;;;17.65;7.10;;;;;;;;;;5035236;28;20394;-74
2023/07/08 02:39:52;;;;;;;16.02;6.63;;;;;;;;;;5035397;28;20108;-75
2023/07/08 02:42:18;;;;;;;11.48;6.20;;;;;;;;;;5034217;28;20035;-73
2023/07/08 02:44:44;;;;;;;13.02;6.22;;;;;;;;;;5035003;28;20059;-74
2023/07/08 02:47:10;;;;;;;21.23;6.82;;;;;;;;;;5035066;28;20076;-74
2023/07/08 02:49:36;;;;;;;20.58;6.40;;;;;;;;;;5035304;28;20513;-75
2023/07/08 02:52:02;;;;;;;16.15;6.75;;;;;;;;;;5034811;28;20033;-72
2023/07/08 02:54:28;;;;;;;9.88;6.00;;;;;;;;;;5034537;28;20033;-73
2023/07/08 02:56:55;;;;;;;12.27;6.88;;;;;;;;;;5034117;28;20067;-73
2023/07/08 02:59:21;;;;;;;10.82;6.43;;;;;;;;;;5036212;28;20045;-73
2023/07/08 03:01:47;;;;;;;11.60;6.80;;;;;;;;;;5035331;28;20736;-73
2023/07/08 03:04:13;;;;;;;15.27;7.70;;;;;;;;;;5034489;28;20430;-73
2023/07/08 03:06:40;;;;;;;14.52;7.30;;;;;;;;;;5036724;28;20392;-73
2023/07/08 03:09:06;;;;;;;17.63;6.70;;;;;;;;;;5039428;28;20528;-73
2023/07/08 03:11:32;;;;;;;16.40;7.20;;;;;;;;;;5036012;28;20467;-72
2023/07/08 03:13:58;;;;;;;16.08;6.43;;;;;;;;;;5033776;28;20049;-73
2023/07/08 03:16:24;;;;;;;10.73;6.75;;;;;;;;;;5034278;28;20030;-72
2023/07/08 03:18:50;;;;;;;11.65;7.18;;;;;;;;;;5034196;28;20021;-73
2023/07/08 03:21:17;;;;;;;16.30;6.45;;;;;;;;;;5034283;28;20021;-74
2023/07/08 03:23:43;;;;;;;17.40;6.47;;;;;;;;;;5033583;28;20424;-72
2023/07/08 03:26:14;;;;;;;11.88;6.35;;;;;;;;;;5034072;28;20024;-73
2023/07/08 03:28:40;;;;;;;13.15;6.13;;;;;;;;;;5034065;28;20025;-72
2023/07/08 03:31:08;;;;;;;13.90;7.00;;;;;;;;;;5033883;28;20429;-71
2023/07/08 03:33:34;;;;;;;11.75;6.50;;;;;;;;;;5033522;28;20025;-70
2023/07/08 03:36:01;;;;;;;14.57;6.53;;;;;;;;;;5033744;28;20026;-71
2023/07/08 03:38:27;;;;;;;11.43;6.07;;;;;;;;;;5033875;28;20070;-72
2023/07/08 03:40:53;;;;;;;16.38;6.20;;;;;;;;;;5034086;28;20105;-71
2023/07/08 03:43:19;;;;;;;12.20;6.28;;;;;;;;;;5033582;28;20035;-72
2023/07/08 03:45:45;;;;;;;11.68;6.25;;;;;;;;;;5034644;28;20030;-72
2023/07/08 03:48:12;;;;;;;17.05;6.28;;;;;;;;;;5035926;28;20021;-72
2023/07/08 03:50:38;;;;;;;13.02;6.70;;;;;;;;;;5036257;28;20110;-72
2023/07/08 03:53:05;;;;;;;11.80;6.15;;;;;;;;;;5034075;28;20348;-74
2023/07/08 03:55:31;;;;;;;14.88;6.15;;;;;;;;;;5033490;28;20112;-73
2023/07/08 03:57:57;;;;;;;10.43;6.00;;;;;;;;;;5033306;28;20044;-72
2023/07/08 04:00:23;;;;;;;13.98;6.28;;;;;;;;;;5033568;28;20073;-71
2023/07/08 04:02:49;;;;;;;14.60;6.57;;;;;;;;;;5033518;28;20025;-72
2023/07/08 04:05:19;;;;;;;12.77;5.88;;;;;;;;;;5034432;28;20031;-72
2023/07/08 04:07:45;;;;;;;9.77;5.78;;;;;;;;;;5034678;28;20108;-73
2023/07/08 04:10:12;;;;;;;11.15;6.07;;;;;;;;;;5033574;28;20029;-73
2023/07/08 04:12:38;;;;;;;12.63;6.03;;;;;;;;;;5041698;28;20033;-72
2023/07/08 04:15:05;;;;;;;16.17;5.75;;;;;;;;;;5038563;28;20108;-74
2023/07/08 04:17:31;;;;;;;12.95;6.00;;;;;;;;;;5033961;28;20021;-71
2023/07/08 04:19:57;;;;;;;11.77;5.80;;;;;;;;;;5039227;28;20456;-71
2023/07/08 04:22:24;;;;;;;9.80;5.80;;;;;;;;;;5034438;28;20039;-73
2023/07/08 04:24:50;;;;;;;11.40;5.80;;;;;;;;;;5038982;28;20525;-72
2023/07/08 04:27:16;;;;;;;14.98;5.72;;;;;;;;;;5037326;28;20104;-72
2023/07/08 04:29:43;;;;;;;12.25;5.85;;;;;;;;;;5036432;28;20084;-73
2023/07/08 04:32:09;;;;;;;15.60;5.00;;;;;;;;;;5035727;28;20418;-72
2023/07/08 04:34:35;;;;;;;10.32;5.63;;;;;;;;;;5034865;28;20030;-73
2023/07/08 04:37:01;;;;;;;10.82;5.53;;;;;;;;;;5032995;28;20067;-72
2023/07/08 04:39:27;;;;;;;12.63;5.38;;;;;;;;;;5033132;28;20478;-72
2023/07/08 04:41:53;;;;;;;11.55;5.93;;;;;;;;;;5032353;28;20036;-73
2023/07/08 04:44:19;;;;;;;14.73;6.10;;;;;;;;;;5033648;28;20116;-73
2023/07/08 04:46:48;;;;;;;11.40;4.65;;;;;;;;;;5033815;28;20108;-72
2023/07/08 04:49:14;;;;;;;10.55;4.70;;;;;;;;;;5033435;28;20022;-74
2023/07/08 04:51:41;;;;;;;11.35;4.65;;;;;;;;;;5032593;28;20048;-74
2023/07/08 04:54:07;;;;;;;12.07;6.32;;;;;;;;;;5031448;28;20092;-72
2023/07/08 04:56:41;;;;;;;12.55;5.10;;;;;;;;;;5033051;28;20052;-74
2023/07/08 04:59:08;;;;;;;14.23;5.38;;;;;;;;;;5035966;28;20395;-73
2023/07/08 05:01:34;;;;;;;15.23;5.10;;;;;;;;;;5035019;28;20045;-75
2023/07/08 05:04:01;;;;;;;19.60;8.60;;;;;;;;;;5033926;28;20084;-73
2023/07/08 05:06:27;;;;;;;11.75;5.30;;;;;;;;;;5033752;28;20071;-74
2023/07/08 05:08:53;;;;;;;11.50;5.80;;;;;;;;;;5032597;28;20471;-71
2023/07/08 05:11:19;;;;;;;12.00;5.22;;;;;;;;;;5032463;28;20064;-72
2023/07/08 05:13:45;;;;;;;13.00;5.00;;;;;;;;;;5032017;28;20061;-73
2023/07/08 05:16:11;;;;;;;11.48;5.50;;;;;;;;;;5032672;28;20104;-72
2023/07/08 05:18:37;;;;;;;18.73;6.82;;;;;;;;;;5032720;28;20105;-75
2023/07/08 05:21:03;;;;;;;12.23;4.55;;;;;;;;;;5031968;28;20033;-75
2023/07/08 05:23:29;;;;;;;9.27;5.00;;;;;;;;;;5032141;28;20026;-73
2023/07/08 05:25:55;;;;;;;11.25;5.32;;;;;;;;;;5029082;28;20505;-75
2023/07/08 05:28:23;;;;;;;16.27;5.03;;;;;;;;;;5035267;28;20096;-72
2023/07/08 05:30:53;;;;;;;10.13;4.18;;;;;;;;;;5041475;28;20025;-72
2023/07/08 05:33:19;;;;;;;6.53;3.90;;;;;;;;;;5034355;28;20056;-71
2023/07/08 05:35:46;;;;;;;10.65;4.78;;;;;;;;;;5035008;28;20475;-71
2023/07/08 05:38:12;;;;;;;8.10;4.22;;;;;;;;;;5039739;28;20036;-71
2023/07/08 05:40:38;;;;;;;11.73;5.15;;;;;;;;;;5031711;28;20025;-73
2023/07/08 05:43:03;;;;;;;10.00;4.60;;;;;;;;;;5046901;28;20483;-72
2023/07/08 05:45:30;;;;;;;9.68;4.90;;;;;;;;;;5038867;28;20108;-72
2023/07/08 05:47:56;;;;;;;9.88;4.45;;;;;;;;;;5037637;28;20485;-71
2023/07/08 05:50:22;;;;;;;8.32;4.25;;;;;;;;;;5042414;28;20099;-71
2023/07/08 05:52:48;;;;;;;13.27;3.88;;;;;;;;;;5046849;28;20029;-73
2023/07/08 05:55:14;;;;;;;6.50;3.63;;;;;;;;;;5045280;28;20057;-71
2023/07/08 05:57:40;;;;;;;12.68;5.15;;;;;;;;;;5041821;28;20108;-74
2023/07/08 06:00:06;;;;;;;11.55;4.70;;;;;;;;;;5027674;28;20041;-73
2023/07/08 06:02:32;;;;;;;11.05;4.55;;;;;;;;;;5036055;28;20022;-71
2023/07/08 06:04:58;;;;;;;8.48;4.07;;;;;;;;;;5041997;28;20090;-71
2023/07/08 06:07:24;;;;;;;10.48;4.10;;;;;;;;;;5048813;28;20029;-75
2023/07/08 06:09:51;;;;;;;14.10;4.35;;;;;;;;;;5044938;28;20056;-71
2023/07/08 06:12:17;;;;;;;8.63;4.10;;;;;;;;;;5034153;28;20495;-71
2023/07/08 06:14:43;;;;;;;10.35;3.92;;;;;;;;;;5041812;28;20065;-71
2023/07/08 06:17:09;;;;;;;8.05;3.70;;;;;;;;;;5051507;28;20036;-73
2023/07/08 06:19:35;;;;;;;10.00;4.13;;;;;;;;;;5051300;28;20036;-72
2023/07/08 06:22:01;;;;;;;11.00;3.50;;;;;;;;;;5050952;28;20032;-71
2023/07/08 06:24:27;;;;;;;8.68;3.22;;;;;;;;;;5051202;28;20387;-73
2023/07/08 06:26:53;;;;;;;10.10;3.40;;;;;;;;;;5051653;28;20033;-72
2023/07/08 06:29:19;;;;;;;10.75;3.88;;;;;;;;;;5050004;28;20501;-72
2023/07/08 06:31:45;;;;;;;10.27;3.55;;;;;;;;;;5051224;28;20021;-72
2023/07/08 06:34:11;;;;;;;10.98;3.80;;;;;;;;;;5052299;28;20047;-74
2023/07/08 06:36:37;;;;;;;12.20;5.93;;;;;;;;;;5051114;28;20424;-74
2023/07/08 06:39:06;;;;;;;12.80;5.93;;;;;;;;;;5051165;28;20029;-73
2023/07/08 06:41:32;;;;;;;14.15;5.00;;;;;;;;;;5051194;28;20021;-75
2023/07/08 06:43:58;;;;;;;10.60;4.43;;;;;;;;;;5052002;28;20055;-72
2023/07/08 06:46:24;;;;;;;9.32;4.03;;;;;;;;;;5052500;28;20414;-73
2023/07/08 06:48:50;;;;;;;12.60;4.75;;;;;;;;;;5051694;28;20025;-74
2023/07/08 06:51:17;;;;;;;10.88;3.70;;;;;;;;;;5051843;28;20017;-72
2023/07/08 06:53:43;;;;;;;8.13;4.38;;;;;;;;;;5052640;28;20139;-73
2023/07/08 06:56:09;;;;;;;9.10;3.80;;;;;;;;;;5051231;28;20025;-72
2023/07/08 06:58:35;;;;;;;12.38;3.80;;;;;;;;;;5051447;28;20043;-72
2023/07/08 07:01:01;;;;;;;7.55;3.53;;;;;;;;;;5051604;28;20032;-71
2023/07/08 07:03:27;;;;;;;8.18;3.45;;;;;;;;;;5050648;28;20029;-72
2023/07/08 07:05:53;;;;;;;9.00;3.00;;;;;;;;;;5051177;28;20024;-70
2023/07/08 07:08:19;;;;;;;8.10;3.63;;;;;;;;;;5050752;28;20048;-73
2023/07/08 07:10:44;;;;;;;11.15;3.17;;;;;;;;;;5050843;28;20021;-72
2023/07/08 07:13:11;;;;;;;8.02;3.45;;;;;;;;;;5050771;28;20079;-72
2023/07/08 07:15:37;;;;;;;9.02;3.08;;;;;;;;;;5051483;28;20029;-72
2023/07/08 07:18:03;;;;;;;13.35;3.60;;;;;;;;;;5053762;28;20382;-72
2023/07/08 07:20:29;;;;;;;10.75;3.38;;;;;;;;;;5055830;28;20443;-72
2023/07/08 07:22:55;;;;;;;9.13;3.28;;;;;;;;;;5054205;28;20040;-72
2023/07/08 07:25:22;;;;;;;7.95;3.28;;;;;;;;;;5054477;28;20037;-72
2023/07/08 07:27:48;;;;;;;8.00;2.95;;;;;;;;;;5054663;28;20017;-72
2023/07/08 07:30:15;;;;;;;8.95;3.22;;;;;;;;;;5055060;28;20484;-71
2023/07/08 07:32:41;;;;;;;10.43;3.10;;;;;;;;;;5055120;28;20044;-73
2023/07/08 07:35:08;;;;;;;10.35;3.28;;;;;;;;;;5056125;28;20021;-72
2023/07/08 07:37:34;;;;;;;6.80;2.80;;;;;;;;;;5055594;28;20029;-72
2023/07/08 07:40:00;;;;;;;7.25;3.25;;;;;;;;;;5053975;28;20089;-72
2023/07/08 07:42:27;;;;;;;8.48;2.90;;;;;;;;;;5054698;28;20036;-73
2023/07/08 07:44:53;;;;;;;5.28;3.15;;;;;;;;;;5055138;28;20025;-73
2023/07/08 07:47:19;;;;;;;6.38;3.10;;;;;;;;;;5033250;28;20084;-73
2023/07/08 07:49:45;;;;;;;7.00;3.13;;;;;;;;;;5032697;28;20021;-72
2023/07/08 07:52:11;;;;;;;8.27;3.05;;;;;;;;;;5033147;28;20448;-72
2023/07/08 07:54:38;;;;;;;6.68;3.25;;;;;;;;;;5031091;28;20387;-74
2023/07/08 07:57:04;;;;;;;6.90;3.13;;;;;;;;;;5029564;28;20025;-71
2023/07/08 07:59:30;;;;;;;7.32;3.08;;;;;;;;;;5030323;28;20025;-72
2023/07/08 08:01:56;;;;;;;5.05;2.90;;;;;;;;;;5030681;28;20387;-72
2023/07/08 08:04:22;;;;;;;7.40;3.03;;;;;;;;;;5032026;28;20114;-72
2023/07/08 08:06:48;;;;;;;11.27;3.45;;;;;;;;;;5031877;28;20030;-73
2023/07/08 08:09:14;;;;;;;7.80;3.25;;;;;;;;;;5033136;28;20049;-72
2023/07/08 08:11:40;;;;;;;5.93;3.00;;;;;;;;;;5033119;28;20487;-72
2023/07/08 08:14:06;;;;;;;9.45;3.30;;;;;;;;;;5030805;28;20032;-72
2023/07/08 08:16:32;;;;;;;4.72;2.75;;;;;;;;;;5030037;28;20099;-72
2023/07/08 08:18:58;;;;;;;5.63;2.50;;;;;;;;;;5030454;28;20131;-74
2023/07/08 08:21:24;;;;;;;5.80;2.85;;;;;;;;;;5031028;28;20025;-73
2023/07/08 08:23:50;;;;;;;5.60;3.05;;;;;;;;;;5032166;28;20053;-74
2023/07/08 08:26:16;;;;;;;8.73;3.10;;;;;;;;;;5032555;28;20486;-73
2023/07/08 08:28:42;;;;;;;7.60;3.28;;;;;;;;;;5032071;28;20033;-73
2023/07/08 08:31:08;;;;;;;8.07;2.70;;;;;;;;;;5030668;28;20045;-71
2023/07/08 08:33:34;;;;;;;4.07;2.50;;;;;;;;;;5030222;28;20033;-71
2023/07/08 08:36:00;;;;;;;7.97;3.15;;;;;;;;;;5033087;28;20030;-72
2023/07/08 08:38:26;;;;;;;4.95;2.88;;;;;;;;;;5033947;28;20025;-73
2023/07/08 08:40:52;;;;;;;9.43;2.85;;;;;;;;;;5030099;28;20044;-72
2023/07/08 08:43:20;;;;;;;8.15;2.85;;;;;;;;;;5028829;28;20026;-72
2023/07/08 08:45:49;;;;;;;9.38;3.22;;;;;;;;;;5030978;28;22065;-73
2023/07/08 08:48:17;;;;;;;6.80;3.35;;;;;;;;;;5032812;28;20085;-73
2023/07/08 08:50:49;;;;;;;7.13;2.97;;;;;;;;;;5033595;28;20060;-72
2023/07/08 08:53:16;;;;;;;6.88;3.45;;;;;;;;;;5033213;28;20403;-72
2023/07/08 08:55:42;;;;;;;6.53;2.90;;;;;;;;;;5032777;28;20032;-73
2023/07/08 08:58:26;;;;;;;7.22;3.20;;;;;;;;;;5036721;28;20030;-73
2023/07/08 09:00:54;;;;;;;5.35;2.90;;;;;;;;;;5036599;28;20146;-72
2023/07/08 09:03:25;;;;;;;10.13;3.30;;;;;;;;;;5035641;28;20041;-72
2023/07/08 09:05:51;;;;;;;5.93;3.30;;;;;;;;;;5034568;28;20025;-73
2023/07/08 09:08:20;;;;;;;5.32;2.90;;;;;;;;;;5032086;28;20609;-71
2023/07/08 09:10:53;;;;;;;5.22;2.78;;;;;;;;;;5030587;28;20022;-71
2023/07/08 09:13:25;;;;;;;26.02;14.40;;;;;;;;;;5032550;28;20032;-74
2023/07/08 09:16:14;;;;;;;11.25;3.75;;;;;;;;;;5028439;28;20419;-74
2023/07/08 09:19:00;;;;;;;13.10;3.08;;;;;;;;;;5012987;28;20044;-71
2023/07/08 09:21:34;;;;;;;9.98;3.00;;;;;;;;;;5032057;28;20048;-73
2023/07/08 09:24:01;;;;;;;8.82;2.85;;;;;;;;;;5032050;28;20517;-73
2023/07/08 09:26:29;;;;;;;7.57;3.10;;;;;;;;;;5032655;28;20087;-72
2023/07/08 09:28:55;;;;;;;10.95;2.95;;;;;;;;;;5032242;28;20036;-72
2023/07/08 09:31:26;;;;;;;6.20;3.17;;;;;;;;;;5031717;28;20021;-73
2023/07/08 09:34:05;;;;;;;10.70;3.47;;;;;;;;;;5031605;28;20572;-72
2023/07/08 09:36:31;;;;;;;6.68;3.08;;;;;;;;;;5031917;28;20502;-72
2023/07/08 09:38:57;;;;;;;7.05;2.85;;;;;;;;;;5031979;28;20064;-71
2023/07/08 09:41:31;;;;;;;11.82;2.95;;;;;;;;;;5031375;28;20109;-73
2023/07/08 09:44:13;;;;;;;4.53;2.77;;;;;;;;;;5031682;28;20076;-74
2023/07/08 09:46:39;;;;;;;8.48;2.95;;;;;;;;;;5032059;28;20264;-74
2023/07/08 09:49:17;;;;;;;8.60;2.60;;;;;;;;;;5032294;28;20132;-74
2023/07/08 09:51:43;;;;;;;6.93;2.60;;;;;;;;;;5032903;28;20025;-72
2023/07/08 09:54:09;;;;;;;6.15;2.72;;;;;;;;;;5033671;28;20091;-74
2023/07/08 09:56:36;;;;;;;9.73;2.80;;;;;;;;;;5033424;28;20032;-75
2023/07/08 09:59:02;;;;;;;6.30;2.92;;;;;;;;;;5033205;28;20041;-74
2023/07/08 10:01:29;;;;;;;7.07;2.80;;;;;;;;;;5033106;28;20105;-74
2023/07/08 10:03:59;;;;;;;7.45;3.38;;;;;;;;;;5033013;28;20029;-73
2023/07/08 10:06:26;;;;;;;8.75;3.47;;;;;;;;;;5032969;28;20509;-74
2023/07/08 10:08:54;;;;;;;5.43;2.65;;;;;;;;;;5032715;28;20036;-74
2023/07/08 10:11:26;;;;;;;6.50;3.22;;;;;;;;;;5032618;28;20108;-72
2023/07/08 10:13:53;;;;;;;5.68;3.08;;;;;;;;;;5031713;28;20485;-74
2023/07/08 10:16:25;;;;;;;5.85;3.03;;;;;;;;;;5032047;28;20032;-74
2023/07/08 10:18:51;;;;;;;8.23;2.97;;;;;;;;;;5031669;28;20033;-74
2023/07/08 10:21:26;;;;;;;10.52;2.80;;;;;;;;;;5031350;28;20084;-73
2023/07/08 10:23:55;;;;;;;5.72;3.20;;;;;;;;;;5030815;28;20026;-73
2023/07/08 10:26:29;;;;;;;9.80;3.20;;;;;;;;;;5033525;28;20097;-73
2023/07/08 10:29:03;;;;;;;6.80;2.55;;;;;;;;;;5032496;28;20502;-74
2023/07/08 10:31:41;;;;;;;7.32;2.95;;;;;;;;;;5030281;28;20022;-73
2023/07/08 10:34:19;;;;;;;6.35;3.03;;;;;;;;;;5030022;28;20480;-74
2023/07/08 10:36:58;;;;;;;7.07;3.22;;;;;;;;;;5029839;28;20428;-71
2023/07/08 10:39:34;;;;;;;6.97;3.17;;;;;;;;;;5028523;28;20132;-71
2023/07/08 10:42:11;;;;;;;4.43;2.88;;;;;;;;;;5027345;28;20029;-72
2023/07/08 10:44:46;;;;;;;10.98;2.90;;;;;;;;;;5027998;28;20025;-72
2023/07/08 10:47:24;;;;;;;12.30;3.53;;;;;;;;;;5028748;28;20471;-73
2023/07/08 10:50:08;;;;;;;7.90;2.72;;;;;;;;;;5027811;28;20472;-74
2023/07/08 10:52:51;;;;;;;6.70;3.15;;;;;;;;;;5030191;28;20021;-72
2023/07/08 10:55:26;;;;;;;5.43;2.75;;;;;;;;;;5032931;28;20067;-73
2023/07/08 10:57:58;;;;;;;4.80;2.80;;;;;;;;;;5031612;28;20517;-73
2023/07/08 11:00:42;;;;;;;9.57;3.15;;;;;;;;;;5033153;28;20033;-73
2023/07/08 11:03:17;;;;;;;12.48;3.22;;;;;;;;;;5032510;28;20036;-72
2023/07/08 11:05:45;;;;;;;7.82;2.97;;;;;;;;;;5032702;28;20044;-73
2023/07/08 11:08:21;;;;;;;4.35;3.10;;;;;;;;;;5032805;28;20029;-72
2023/07/08 11:10:53;;;;;;;6.95;2.80;;;;;;;;;;5031759;28;20022;-73
2023/07/08 11:13:20;;;;;;;6.95;3.10;;;;;;;;;;5030063;28;20475;-73
2023/07/08 11:15:49;;;;;;;8.10;3.22;;;;;;;;;;5033879;28;20390;-73
2023/07/08 11:18:22;;;;;;;13.18;2.60;;;;;;;;;;5032702;28;20079;-73
2023/07/08 11:20:57;;;;;;;5.50;2.97;;;;;;;;;;5032284;28;20806;-75
2023/07/08 11:23:26;;;;;;;6.90;2.53;;;;;;;;;;5030965;28;20394;-72
2023/07/08 11:25:54;;;;;;;10.20;3.67;;;;;;;;;;5034224;28;20155;-72
2023/07/08 11:28:22;;;;;;;12.02;4.00;;;;;;;;;;5034134;28;20028;-72
2023/07/08 11:30:49;;;;;;;7.97;3.35;;;;;;;;;;5034388;28;20075;-74
2023/07/08 11:33:17;;;;;;;5.32;2.92;;;;;;;;;;5034221;28;20096;-72
2023/07/08 11:35:46;;;;;;;7.32;2.90;;;;;;;;;;5034629;28;20025;-73
2023/07/08 11:38:15;;;;;;;6.10;2.95;;;;;;;;;;5034126;28;20458;-74
2023/07/08 11:40:55;;;;;;;15.68;3.72;;;;;;;;;;5033993;28;20028;-75
2023/07/08 11:43:22;;;;;;;7.95;3.22;;;;;;;;;;5034683;28;20026;-74
2023/07/08 11:45:50;;;;;;;9.98;3.40;;;;;;;;;;5035186;28;20057;-72
2023/07/08 11:48:22;;;;;;;7.40;2.90;;;;;;;;;;5034017;28;20168;-73
2023/07/08 11:50:51;;;;;;;7.00;3.53;;;;;;;;;;5033679;28;20029;-73
2023/07/08 11:53:29;;;;;;;13.02;3.30;;;;;;;;;;5032850;28;20049;-75
2023/07/08 11:55:59;;;;;;;4.90;2.83;;;;;;;;;;5034349;28;20025;-74
2023/07/08 11:58:26;;;;;;;7.07;3.40;;;;;;;;;;5032884;28;20479;-73
2023/07/08 12:01:00;;;;;;;10.48;4.00;;;;;;;;;;5035432;28;20032;-77
2023/07/08 12:03:34;;;;;;;9.32;3.55;;;;;;;;;;5033355;28;20418;-74
2023/07/08 12:06:06;;;;;;;4.78;2.90;;;;;;;;;;5033692;28;20033;-73
2023/07/08 12:08:37;;;;;;;7.68;3.08;;;;;;;;;;5033662;28;20037;-75
2023/07/08 12:11:03;;;;;;;6.93;3.00;;;;;;;;;;5033790;28;20029;-73
2023/07/08 12:13:30;;;;;;;9.38;2.88;;;;;;;;;;5033495;28;20033;-77
2023/07/08 12:15:56;;;;;;;7.30;3.40;;;;;;;;;;5033890;28;20079;-73
2023/07/08 12:18:25;;;;;;;8.00;2.85;;;;;;;;;;5033792;28;20024;-76
2023/07/08 12:20:57;;;;;;;4.50;2.60;;;;;;;;;;5033730;28;20033;-75
2023/07/08 12:23:24;;;;;;;7.10;3.28;;;;;;;;;;5032594;28;20052;-74
2023/07/08 12:25:51;;;;;;;7.75;3.05;;;;;;;;;;5033836;28;20025;-77
2023/07/08 12:28:17;;;;;;;9.20;3.63;;;;;;;;;;5034284;28;20024;-73
2023/07/08 12:30:44;;;;;;;4.45;3.00;;;;;;;;;;5034886;28;20450;-74
2023/07/08 12:33:15;;;;;;;4.55;3.03;;;;;;;;;;5034311;28;20025;-73
2023/07/08 12:35:42;;;;;;;5.05;2.95;;;;;;;;;;5033456;28;20029;-74
2023/07/08 12:38:14;;;;;;;8.07;3.28;;;;;;;;;;5033437;28;20056;-73
2023/07/08 12:40:41;;;;;;;9.27;3.10;;;;;;;;;;5032601;28;20471;-73
2023/07/08 12:43:10;;;;;;;7.15;2.80;;;;;;;;;;5032363;28;20058;-73
2023/07/08 12:45:36;;;;;;;7.57;2.70;;;;;;;;;;5032944;28;20476;-74
2023/07/08 12:48:02;;;;;;;10.07;3.10;;;;;;;;;;5032925;28;20471;-73
2023/07/08 12:50:28;;;;;;;7.93;3.15;;;;;;;;;;5033328;28;20017;-73
2023/07/08 12:52:56;;;;;;;6.00;2.65;;;;;;;;;;5032923;28;20468;-73
2023/07/08 12:55:22;;;;;;;11.60;5.93;;;;;;;;;;5034436;28;20028;-73
2023/07/08 12:57:50;;;;;;;4.43;3.00;;;;;;;;;;5035466;28;20452;-73
2023/07/08 13:00:23;;;;;;;6.72;3.17;;;;;;;;;;5032681;28;20037;-74
2023/07/08 13:02:51;;;;;;;5.60;3.25;;;;;;;;;;5033559;28;20041;-74
2023/07/08 13:05:17;;;;;;;10.45;3.38;;;;;;;;;;5034996;28;20030;-74
2023/07/08 13:07:44;;;;;;;10.80;3.60;;;;;;;;;;5035790;28;20032;-74
2023/07/08 13:10:17;;;;;;;7.43;3.05;;;;;;;;;;5035208;28;20026;-73
2023/07/08 13:12:43;;;;;;;11.90;3.58;;;;;;;;;;5036579;28;20034;-76
2023/07/08 13:15:13;;;;;;;6.57;2.92;;;;;;;;;;5050645;28;20009;-72
2023/07/08 13:17:40;;;;;;;6.43;3.20;;;;;;;;;;5055527;28;20018;-73
2023/07/08 13:20:13;;;;;;;9.38;3.45;;;;;;;;;;5049690;28;20112;-72
2023/07/08 13:22:39;;;;;;;7.72;2.80;;;;;;;;;;5046092;28;20033;-74
2023/07/08 13:25:11;;;;;;;5.75;2.95;;;;;;;;;;5039839;28;20460;-74
2023/07/08 13:27:37;;;;;;;9.05;3.30;;;;;;;;;;5041372;28;20025;-73
2023/07/08 13:30:20;;;;;;;6.13;3.40;;;;;;;;;;5033025;28;20617;-74
2023/07/08 13:32:49;;;;;;;5.63;3.17;;;;;;;;;;5031937;28;20671;-73
2023/07/08 13:35:22;;;;;;;7.90;3.38;;;;;;;;;;5032873;28;20030;-74
2023/07/08 13:37:50;;;;;;;6.90;3.88;;;;;;;;;;5032398;28;20458;-74
2023/07/08 13:40:16;;;;;;;6.60;2.97;;;;;;;;;;5032124;28;20368;-76
2023/07/08 13:42:49;;;;;;;5.85;3.50;;;;;;;;;;5031909;28;20091;-74
2023/07/08 13:45:18;;;;;;;8.57;3.92;;;;;;;;;;5031930;28;20021;-72
2023/07/08 13:47:44;;;;;;;5.80;3.50;;;;;;;;;;5033628;28;20026;-72
2023/07/08 13:50:23;;;;;;;7.90;3.30;;;;;;;;;;5037098;28;20494;-74
2023/07/08 13:52:54;;;;;;;7.40;3.75;;;;;;;;;;5033309;28;20030;-74
2023/07/08 13:55:21;;;;;;;6.93;3.70;;;;;;;;;;5031749;28;20029;-73
2023/07/08 13:57:55;;;;;;;8.05;3.40;;;;;;;;;;5031481;28;20032;-72
2023/07/08 14:00:21;;;;;;;6.75;3.30;;;;;;;;;;5031649;28;20503;-76
2023/07/08 14:02:47;;;;;;;7.35;3.60;;;;;;;;;;5031503;28;20052;-73
2023/07/08 14:05:15;;;;;;;9.32;3.60;;;;;;;;;;5031586;28;20463;-74
2023/07/08 14:07:41;;;;;;;8.73;3.42;;;;;;;;;;5031653;28;20052;-74
2023/07/08 14:10:11;;;;;;;5.78;2.97;;;;;;;;;;5031472;28;20033;-72
2023/07/08 14:12:37;;;;;;;6.35;3.70;;;;;;;;;;5031293;28;20030;-73
2023/07/08 14:15:03;;;;;;;6.38;3.63;;;;;;;;;;5031623;28;20375;-74
2023/07/08 14:17:29;;;;;;;8.52;3.70;;;;;;;;;;5031636;28;20040;-72
2023/07/08 14:19:55;;;;;;;9.35;3.58;;;;;;;;;;5032362;28;20029;-74
2023/07/08 14:22:26;;;;;;;8.32;3.60;;;;;;;;;;5031408;28;20040;-73
2023/07/08 14:24:52;;;;;;;8.57;3.65;;;;;;;;;;5031385;28;20033;-74
2023/07/08 14:27:18;;;;;;;13.68;3.42;;;;;;;;;;5034341;28;20483;-72
2023/07/08 14:29:49;;;;;;;4.57;3.15;;;;;;;;;;5035640;28;20021;-74
2023/07/08 14:32:17;;;;;;;4.40;2.92;;;;;;;;;;5035400;28;20028;-74
2023/07/08 14:34:48;;;;;;;7.03;3.80;;;;;;;;;;5035286;28;20582;-72
2023/07/08 14:37:16;;;;;;;10.30;4.10;;;;;;;;;;5036074;28;20029;-73
2023/07/08 14:39:42;;;;;;;8.27;4.20;;;;;;;;;;5036448;28;20049;-73
2023/07/08 14:42:11;;;;;;;6.85;3.28;;;;;;;;;;5035145;28;20064;-74